Time;durP1;ratioP1;P1;durP2;ratioP2;P2;SDS_P1;SDS_P2;PMS_P1;PMS_P2;Temp;Humidity;BMP_temperature;BMP_pressure;BME280_temperature;BME280_humidity;BME280_pressure;Samples;Min_cycle;Max_cycle;Signal;HPM_P1;HPM_P2
2022/07/01 00:00:41;;;;;;;1.05;0.50;;;;;;;18.23;100.00;100153.78;5030436;28;20055;-65
2022/07/01 00:03:07;;;;;;;2.28;0.68;;;;;;;18.22;100.00;100165.50;5035981;28;20029;-65
2022/07/01 00:05:32;;;;;;;2.67;0.60;;;;;;;18.21;100.00;100168.28;5032845;28;20029;-65
2022/07/01 00:07:57;;;;;;;1.30;0.45;;;;;;;18.18;100.00;100172.06;5034854;28;20030;-65
2022/07/01 00:10:23;;;;;;;1.55;0.70;;;;;;;18.14;100.00;100162.41;5015023;28;20116;-65
2022/07/01 00:12:48;;;;;;;0.95;0.47;;;;;;;18.03;100.00;100164.91;5029823;28;20033;-65
2022/07/01 00:15:14;;;;;;;1.00;0.60;;;;;;;17.96;100.00;100168.03;5029506;28;20777;-65
2022/07/01 00:17:39;;;;;;;0.63;0.47;;;;;;;17.99;100.00;100181.34;5030031;28;20494;-65
2022/07/01 00:20:06;;;;;;;0.85;0.60;;;;;;;17.97;100.00;100192.16;5030652;28;20087;-65
2022/07/01 00:22:32;;;;;;;0.50;0.40;;;;;;;17.98;100.00;100187.66;5028731;28;20025;-65
2022/07/01 00:24:57;;;;;;;1.05;0.50;;;;;;;17.99;100.00;100184.88;5020252;28;20034;-65
2022/07/01 00:27:23;;;;;;;0.50;0.45;;;;;;;18.05;100.00;100200.69;5021259;28;20067;-65
2022/07/01 00:29:48;;;;;;;1.67;0.70;;;;;;;18.02;100.00;100187.38;5030605;28;20497;-65
2022/07/01 00:32:14;;;;;;;3.22;0.68;;;;;;;18.05;100.00;100189.91;5030121;28;20446;-65
2022/07/01 00:34:39;;;;;;;0.80;0.50;;;;;;;18.06;100.00;100191.63;5029769;28;20455;-65
2022/07/01 00:37:05;;;;;;;2.55;0.63;;;;;;;18.11;100.00;100192.22;5030014;28;20013;-65
2022/07/01 00:39:35;;;;;;;3.83;0.50;;;;;;;18.10;100.00;100185.09;5029715;28;20049;-65
2022/07/01 00:42:03;;;;;;;2.75;0.73;;;;;;;18.10;100.00;100179.69;5029172;28;20037;-65
2022/07/01 00:44:29;;;;;;;1.17;0.60;;;;;;;18.19;100.00;100180.97;5019636;28;20034;-65
2022/07/01 00:46:56;;;;;;;2.55;0.60;;;;;;;18.22;100.00;100186.16;5017865;28;20030;-65
2022/07/01 00:49:22;;;;;;;1.38;0.70;;;;;;;18.15;100.00;100196.44;5024747;28;20032;-65
2022/07/01 00:51:47;;;;;;;1.65;0.50;;;;;;;18.12;100.00;100191.25;5018983;28;20132;-65
2022/07/01 00:54:13;;;;;;;1.00;0.70;;;;;;;18.04;100.00;100185.47;5018182;28;20025;-65
2022/07/01 00:56:39;;;;;;;1.38;0.80;;;;;;;18.09;100.00;100201.34;5027920;28;20103;-65
2022/07/01 00:59:04;;;;;;;1.42;0.80;;;;;;;18.06;100.00;100197.00;5029113;28;20026;-65
2022/07/01 01:01:30;;;;;;;1.48;0.77;;;;;;;18.10;100.00;100195.84;5029427;28;20045;-65
2022/07/01 01:03:56;;;;;;;1.65;0.90;;;;;;;18.14;100.00;100200.09;5028932;28;20120;-65
2022/07/01 01:06:21;;;;;;;0.85;0.70;;;;;;;18.15;100.00;100191.06;5029298;28;20029;-65
2022/07/01 01:08:48;;;;;;;1.95;1.20;;;;;;;18.15;100.00;100204.53;5028257;28;20107;-65
2022/07/01 01:11:15;;;;;;;1.55;0.90;;;;;;;18.24;100.00;100205.78;5029824;28;20052;-65
2022/07/01 01:13:41;;;;;;;0.80;0.77;;;;;;;18.06;100.00;100212.28;5013092;28;20014;-65
2022/07/01 01:16:07;;;;;;;1.38;0.93;;;;;;;17.99;100.00;100205.56;5013280;28;20112;-65
2022/07/01 01:18:33;;;;;;;1.55;0.95;;;;;;;17.97;100.00;100202.09;5013111;28;20117;-65
2022/07/01 01:20:59;;;;;;;1.38;0.98;;;;;;;17.99;100.00;100195.66;5020580;28;20097;-65
2022/07/01 01:23:24;;;;;;;2.20;1.15;;;;;;;18.00;100.00;100197.41;5032554;28;20120;-65
2022/07/01 01:25:50;;;;;;;1.48;0.98;;;;;;;18.08;100.00;100213.94;5032946;28;20021;-65
2022/07/01 01:28:15;;;;;;;3.63;0.98;;;;;;;18.06;100.00;100213.16;5015976;28;20395;-65
2022/07/01 01:30:41;;;;;;;1.25;1.00;;;;;;;18.02;100.00;100194.59;5034741;28;20032;-65
2022/07/01 01:33:15;;;;;;;3.45;0.98;;;;;;;18.06;100.00;100190.75;5034521;28;20029;-65
2022/07/01 01:35:41;;;;;;;2.72;1.10;;;;;;;17.95;100.00;100188.72;5034634;28;20026;-65
2022/07/01 01:38:06;;;;;;;1.85;1.00;;;;;;;17.89;100.00;100181.00;5034258;28;20013;-65
2022/07/01 01:40:32;;;;;;;1.30;1.00;;;;;;;17.91;100.00;100183.59;5034399;28;20104;-65
2022/07/01 01:42:58;;;;;;;1.73;0.95;;;;;;;17.94;100.00;100170.81;5034552;28;20052;-65
2022/07/01 01:45:23;;;;;;;2.88;1.00;;;;;;;17.98;100.00;100177.78;5034290;28;20033;-65
2022/07/01 01:47:48;;;;;;;1.85;0.90;;;;;;;17.97;100.00;100186.78;5034455;28;20052;-65
2022/07/01 01:50:14;;;;;;;1.15;0.70;;;;;;;17.95;100.00;100185.16;5034510;28;20029;-65
2022/07/01 01:52:42;;;;;;;2.08;0.75;;;;;;;17.93;100.00;100201.41;5034352;28;20036;-65
2022/07/01 01:55:08;;;;;;;2.00;0.68;;;;;;;17.92;100.00;100199.66;5034195;28;20045;-65
2022/07/01 01:57:34;;;;;;;2.42;0.70;;;;;;;17.96;100.00;100189.56;5034304;28;20028;-65
2022/07/01 02:00:00;;;;;;;0.98;0.77;;;;;;;17.95;100.00;100204.88;5034301;28;20033;-65
2022/07/01 02:02:25;;;;;;;1.17;0.70;;;;;;;17.95;100.00;100214.78;5033823;28;20037;-65
2022/07/01 02:04:50;;;;;;;1.10;0.73;;;;;;;17.80;100.00;100211.16;5032209;28;20033;-65
2022/07/01 02:07:16;;;;;;;1.15;0.70;;;;;;;17.78;100.00;100204.13;5032247;28;20044;-65
2022/07/01 02:09:41;;;;;;;0.82;0.77;;;;;;;17.76;100.00;100187.22;5032151;28;20043;-65
2022/07/01 02:12:07;;;;;;;1.00;0.75;;;;;;;17.84;100.00;100193.84;5015345;28;20503;-65
2022/07/01 02:14:33;;;;;;;4.32;2.33;;;;;;;17.81;100.00;100207.50;5033831;28;20533;-65
2022/07/01 02:16:58;;;;;;;4.85;0.85;;;;;;;17.73;100.00;100220.53;5030198;28;20033;-65
2022/07/01 02:19:23;;;;;;;3.20;0.77;;;;;;;17.67;100.00;100220.91;5033278;28;20025;-65
2022/07/01 02:21:50;;;;;;;1.38;0.70;;;;;;;17.62;100.00;100209.56;5030091;28;20029;-65
2022/07/01 02:24:17;;;;;;;2.45;0.73;;;;;;;17.63;100.00;100195.13;5031726;28;20018;-65
2022/07/01 02:26:42;;;;;;;1.13;0.70;;;;;;;17.59;100.00;100177.47;5027680;28;20022;-65
2022/07/01 02:29:08;;;;;;;1.98;0.60;;;;;;;17.58;100.00;100194.53;5012258;28;20044;-65
2022/07/01 02:31:33;;;;;;;0.70;0.70;;;;;;;17.59;100.00;100193.59;5024578;28;20087;-65
2022/07/01 02:33:58;;;;;;;1.63;0.70;;;;;;;17.58;100.00;100189.16;5033605;28;20045;-65
2022/07/01 02:36:24;;;;;;;1.23;0.60;;;;;;;17.48;100.00;100203.25;5033517;28;20552;-65
2022/07/01 02:38:49;;;;;;;0.57;0.47;;;;;;;17.36;100.00;100214.66;5033532;28;20028;-65
2022/07/01 02:41:15;;;;;;;3.28;0.80;;;;;;;17.32;100.00;100219.34;5015619;28;20094;-65
2022/07/01 02:43:40;;;;;;;0.80;0.57;;;;;;;17.34;100.00;100219.25;5033390;28;20025;-65
2022/07/01 02:46:06;;;;;;;2.20;0.90;;;;;;;17.41;100.00;100218.84;5033047;28;20488;-65
2022/07/01 02:48:31;;;;;;;1.48;0.80;;;;;;;17.43;100.00;100206.13;5033349;28;20026;-65
2022/07/01 02:50:56;;;;;;;1.63;0.90;;;;;;;17.44;100.00;100201.63;5033065;28;20033;-65
2022/07/01 02:53:22;;;;;;;2.25;0.68;;;;;;;17.41;100.00;100191.94;5016771;28;20117;-65
2022/07/01 02:55:47;;;;;;;1.13;0.77;;;;;;;17.45;100.00;100198.88;5016071;28;20056;-65
2022/07/01 02:58:13;;;;;;;1.25;0.80;;;;;;;17.45;100.00;100195.28;5032978;28;20033;-65
2022/07/01 03:00:38;;;;;;;2.40;0.77;;;;;;;17.42;100.00;100200.84;5032933;28;20056;-65
2022/07/01 03:03:03;;;;;;;4.63;1.00;;;;;;;17.40;100.00;100194.69;5032758;28;20025;-65
2022/07/01 03:05:29;;;;;;;0.90;0.68;;;;;;;17.38;100.00;100194.78;5032715;28;20108;-65
2022/07/01 03:07:54;;;;;;;5.07;0.82;;;;;;;17.42;100.00;100199.03;5032216;28;20025;-65
2022/07/01 03:10:20;;;;;;;1.02;0.80;;;;;;;17.41;100.00;100216.16;5029552;28;20543;-65
2022/07/01 03:12:45;;;;;;;1.35;0.75;;;;;;;17.36;100.00;100214.66;5032956;28;20167;-65
2022/07/01 03:15:13;;;;;;;1.05;0.70;;;;;;;17.30;100.00;100199.72;5032486;28;20025;-65
2022/07/01 03:17:40;;;;;;;2.30;0.82;;;;;;;17.41;100.00;100217.97;5032631;28;20686;-65
2022/07/01 03:20:08;;;;;;;2.88;0.70;;;;;;;17.47;100.00;100228.38;5031301;28;20033;-65
2022/07/01 03:22:35;;;;;;;1.55;0.88;;;;;;;17.43;100.00;100222.28;5031365;28;20075;-65
2022/07/01 03:25:00;;;;;;;3.60;0.80;;;;;;;17.46;100.00;100234.72;5031209;28;20061;-65
2022/07/01 03:27:26;;;;;;;7.57;1.42;;;;;;;17.40;100.00;100233.22;5031061;28;20458;-65
2022/07/01 03:29:52;;;;;;;2.20;0.68;;;;;;;17.40;100.00;100243.97;5030866;28;20108;-65
2022/07/01 03:32:18;;;;;;;1.98;0.75;;;;;;;17.40;100.00;100249.34;5031995;28;20036;-65
2022/07/01 03:34:49;;;;;;;4.72;0.88;;;;;;;17.38;100.00;100256.63;5031777;28;20025;-65
2022/07/01 03:37:17;;;;;;;3.47;0.88;;;;;;;17.34;100.00;100251.50;5032119;28;20366;-65
2022/07/01 03:39:43;;;;;;;2.22;1.05;;;;;;;17.35;100.00;100251.44;5031864;28;20071;-65
2022/07/01 03:42:09;;;;;;;1.52;0.90;;;;;;;17.34;100.00;100260.47;5032034;28;20026;-65
2022/07/01 03:44:35;;;;;;;1.33;0.80;;;;;;;17.24;100.00;100279.88;5032151;28;20087;-65
2022/07/01 03:47:01;;;;;;;2.20;0.85;;;;;;;17.25;100.00;100282.47;5032128;28;20117;-65
2022/07/01 03:49:26;;;;;;;1.95;0.65;;;;;;;17.32;100.00;100299.13;5031030;28;20100;-65
2022/07/01 03:51:52;;;;;;;18.05;4.18;;;;;;;17.38;100.00;100305.03;5030826;28;20033;-65
2022/07/01 03:54:30;;;;;;;4.53;1.00;;;;;;;17.49;100.00;100309.84;5030533;28;20053;-65
2022/07/01 03:56:59;;;;;;;3.60;1.02;;;;;;;17.47;100.00;100311.75;5030429;28;20544;-65
2022/07/01 03:59:25;;;;;;;2.90;0.82;;;;;;;17.51;100.00;100306.13;5030777;28;20028;-65
2022/07/01 04:01:54;;;;;;;2.42;0.80;;;;;;;17.59;100.00;100298.50;5012825;28;20120;-65
2022/07/01 04:04:20;;;;;;;1.73;0.65;;;;;;;17.60;100.00;100299.34;5031613;28;20052;-65
2022/07/01 04:06:47;;;;;;;2.33;0.77;;;;;;;17.56;100.00;100312.09;5031490;28;20026;-65
2022/07/01 04:09:15;;;;;;;2.17;0.70;;;;;;;17.42;100.00;100306.59;5031321;28;20451;-65
2022/07/01 04:11:45;;;;;;;1.90;0.82;;;;;;;17.48;100.00;100318.91;5031399;28;20026;-65
2022/07/01 04:14:11;;;;;;;3.65;0.82;;;;;;;17.43;100.00;100307.50;5030055;28;20028;-65
2022/07/01 04:16:37;;;;;;;5.22;0.98;;;;;;;17.31;100.00;100292.91;5029599;28;20045;-65
2022/07/01 04:19:03;;;;;;;4.35;0.63;;;;;;;17.19;100.00;100298.94;5029857;28;20463;-65
2022/07/01 04:24:15;;;;;;;1.10;0.70;;;;;;;17.05;100.00;100291.63;5030126;28;20032;-64
2022/07/01 04:26:42;;;;;;;4.25;1.27;;;;;;;17.08;100.00;100296.00;5027361;28;20091;-64
2022/07/01 04:29:08;;;;;;;1.52;0.70;;;;;;;17.05;100.00;100290.75;5028745;28;20022;-64
2022/07/01 04:31:34;;;;;;;2.95;0.75;;;;;;;17.10;100.00;100304.81;5030344;28;20051;-64
2022/07/01 04:34:00;;;;;;;0.90;0.60;;;;;;;17.05;100.00;100294.31;5031434;28;20116;-64
2022/07/01 04:36:26;;;;;;;4.03;0.98;;;;;;;17.23;100.00;100305.91;5030942;28;20120;-64
2022/07/01 04:38:51;;;;;;;4.68;0.95;;;;;;;17.31;100.00;100294.72;5031360;28;20124;-64
2022/07/01 04:44:01;;;;;;;0.77;0.60;;;;;;;17.45;100.00;100300.19;5031601;28;20072;-64
2022/07/01 04:46:27;;;;;;;0.57;0.57;;;;;;;17.49;100.00;100280.28;5030867;28;20496;-64
2022/07/01 04:48:52;;;;;;;3.30;0.80;;;;;;;17.57;100.00;100267.25;5031076;28;20026;-64
2022/07/01 04:51:18;;;;;;;1.20;0.60;;;;;;;17.64;100.00;100264.13;5026996;28;20021;-64
2022/07/01 04:53:43;;;;;;;1.27;0.55;;;;;;;17.56;100.00;100274.44;5031008;28;20488;-64
2022/07/01 04:56:08;;;;;;;3.00;0.85;;;;;;;17.51;100.00;100279.22;5030886;28;20084;-64
2022/07/01 04:58:34;;;;;;;1.90;0.63;;;;;;;17.63;100.00;100296.47;5031021;28;20028;-64
2022/07/01 05:00:59;;;;;;;2.15;0.60;;;;;;;17.62;100.00;100303.72;5031019;28;20087;-64
2022/07/01 05:03:25;;;;;;;1.35;0.85;;;;;;;17.57;100.00;100300.41;5030477;28;20021;-64
2022/07/01 05:05:50;;;;;;;1.02;0.90;;;;;;;17.57;100.00;100307.59;5030683;28;20401;-64
2022/07/01 05:08:16;;;;;;;1.67;0.73;;;;;;;17.57;100.00;100297.72;5030890;28;20030;-64
2022/07/01 05:10:42;;;;;;;1.95;0.90;;;;;;;17.64;100.00;100290.16;5014090;28;20022;-64
2022/07/01 05:13:07;;;;;;;0.95;0.80;;;;;;;17.71;100.00;100292.41;5026221;28;20037;-64
2022/07/01 05:15:33;;;;;;;0.95;0.60;;;;;;;17.69;100.00;100290.78;5031095;28;20054;-64
2022/07/01 05:23:26;;;;;;;2.13;0.63;;;;;;;17.56;100.00;100304.03;5031174;28;20068;-64
2022/07/01 05:25:51;;;;;;;3.30;0.70;;;;;;;17.56;100.00;100293.28;5030889;28;20112;-64
2022/07/01 05:28:17;;;;;;;1.20;0.70;;;;;;;17.55;100.00;100286.16;5030417;28;20541;-64
2022/07/01 05:30:42;;;;;;;1.40;0.68;;;;;;;17.52;100.00;100302.50;5028837;28;20024;-64
2022/07/01 05:33:08;;;;;;;0.90;0.70;;;;;;;17.49;100.00;100308.03;5029119;28;20100;-64
2022/07/01 05:35:33;;;;;;;1.95;0.65;;;;;;;17.36;100.00;100316.84;5028925;28;20029;-64
2022/07/01 05:37:58;;;;;;;2.95;1.00;;;;;;;17.33;100.00;100314.34;5028779;28;20091;-64
2022/07/01 05:40:25;;;;;;;0.70;0.70;;;;;;;17.27;100.00;100311.97;5028525;28;20624;-64
2022/07/01 05:42:51;;;;;;;1.10;0.60;;;;;;;17.29;100.00;100310.94;5028397;28;20039;-64
2022/07/01 05:45:17;;;;;;;3.38;0.70;;;;;;;17.34;100.00;100314.25;5029632;28;20136;-64
2022/07/01 05:47:42;;;;;;;1.20;0.70;;;;;;;17.40;100.00;100318.38;5030485;28;20030;-64
2022/07/01 05:50:08;;;;;;;3.10;0.70;;;;;;;17.37;100.00;100319.44;5030610;28;20033;-64
2022/07/01 05:52:33;;;;;;;1.50;0.77;;;;;;;17.33;100.00;100317.88;5030440;28;20041;-64
2022/07/01 05:54:59;;;;;;;1.15;0.70;;;;;;;17.40;100.00;100313.88;5030595;28;20141;-64
2022/07/01 05:57:24;;;;;;;1.50;0.82;;;;;;;17.58;100.00;100317.41;5030463;28;20056;-64
2022/07/01 05:59:50;;;;;;;2.47;1.00;;;;;;;17.54;100.00;100322.09;5033188;28;20404;-64
2022/07/01 06:02:15;;;;;;;1.35;0.80;;;;;;;17.57;100.00;100334.50;5034101;28;20029;-64
2022/07/01 06:04:43;;;;;;;3.13;0.90;;;;;;;17.60;100.00;100332.50;5034231;28;20498;-64
2022/07/01 06:07:08;;;;;;;1.88;0.90;;;;;;;17.65;100.00;100341.19;5033208;28;20439;-64
2022/07/01 06:09:34;;;;;;;1.30;0.88;;;;;;;17.70;100.00;100344.50;5033997;28;20100;-64
2022/07/01 06:11:59;;;;;;;0.93;0.73;;;;;;;17.70;100.00;100339.13;5033940;28;20114;-64
2022/07/01 06:14:24;;;;;;;2.08;0.80;;;;;;;17.70;100.00;100341.81;5033592;28;20029;-64
2022/07/01 06:16:50;;;;;;;1.20;0.68;;;;;;;17.73;100.00;100328.16;5034066;28;20511;-64
2022/07/01 06:19:15;;;;;;;3.05;0.77;;;;;;;17.68;100.00;100340.13;5034153;28;20040;-64
2022/07/01 06:21:41;;;;;;;1.13;0.63;;;;;;;17.59;100.00;100346.06;5034018;28;20483;-64
2022/07/01 06:24:06;;;;;;;2.08;0.85;;;;;;;17.52;100.00;100339.28;5033566;28;20040;-64
2022/07/01 06:26:32;;;;;;;4.90;1.00;;;;;;;17.45;100.00;100336.06;5030249;28;20026;-64
2022/07/01 06:28:57;;;;;;;1.17;0.85;;;;;;;17.43;100.00;100339.75;5013742;28;20038;-64
2022/07/01 06:31:23;;;;;;;2.28;1.25;;;;;;;17.38;100.00;100350.75;5015871;28;20108;-64
2022/07/01 06:33:49;;;;;;;2.38;0.85;;;;;;;17.27;100.00;100337.03;5013640;28;20137;-64
2022/07/01 06:36:14;;;;;;;1.63;1.10;;;;;;;17.33;100.00;100360.03;5028827;28;20034;-64
2022/07/01 06:38:39;;;;;;;2.22;1.15;;;;;;;17.33;100.00;100355.50;5013251;28;20030;-64
2022/07/01 06:43:49;;;;;;;2.65;1.00;;;;;;;17.45;100.00;100375.47;5033444;28;20041;-64
2022/07/01 06:46:14;;;;;;;3.83;1.20;;;;;;;17.47;100.00;100369.13;5033496;28;20029;-64
2022/07/01 06:48:40;;;;;;;2.08;1.15;;;;;;;17.45;100.00;100368.31;5031852;28;20022;-64
2022/07/01 06:51:05;;;;;;;1.63;0.80;;;;;;;17.43;100.00;100372.03;5031115;28;20029;-64
2022/07/01 06:53:31;;;;;;;1.85;0.93;;;;;;;17.48;100.00;100359.25;5032113;28;20028;-64
2022/07/01 06:55:57;;;;;;;2.28;1.08;;;;;;;17.46;100.00;100361.97;5028347;28;20124;-64
2022/07/01 06:58:22;;;;;;;4.68;1.25;;;;;;;17.38;100.00;100358.81;5032011;28;20022;-64
2022/07/01 07:00:48;;;;;;;1.00;0.85;;;;;;;17.45;100.00;100359.34;5030360;28;20018;-64
2022/07/01 07:03:13;;;;;;;3.40;1.75;;;;;;;17.46;100.00;100363.81;5032872;28;20029;-64
2022/07/01 07:05:39;;;;;;;3.95;1.98;;;;;;;17.47;100.00;100352.97;5014785;28;20112;-64
2022/07/01 07:08:04;;;;;;;4.50;2.08;;;;;;;17.46;100.00;100353.91;5032665;28;20025;-64
2022/07/01 07:10:30;;;;;;;3.08;1.25;;;;;;;17.48;100.00;100349.31;5032981;28;20054;-64
2022/07/01 07:12:56;;;;;;;2.78;1.08;;;;;;;17.57;100.00;100340.75;5032942;28;20531;-64
2022/07/01 07:15:21;;;;;;;2.55;1.00;;;;;;;17.55;100.00;100313.06;5032697;28;20464;-65
2022/07/01 07:17:46;;;;;;;1.92;0.90;;;;;;;17.52;100.00;100289.03;5032550;28;20033;-65
2022/07/01 07:20:12;;;;;;;3.35;1.10;;;;;;;17.63;100.00;100335.03;5028789;28;20034;-65
2022/07/01 07:22:37;;;;;;;2.88;1.20;;;;;;;17.58;100.00;100361.31;5032768;28;20570;-65
2022/07/01 07:25:03;;;;;;;4.32;1.10;;;;;;;17.51;100.00;100365.28;5032565;28;20140;-65
2022/07/01 07:27:29;;;;;;;1.63;1.10;;;;;;;17.51;100.00;100359.91;5032280;28;20017;-65
2022/07/01 07:29:54;;;;;;;2.40;1.23;;;;;;;17.59;100.00;100365.75;5032987;28;20037;-65
2022/07/01 07:32:20;;;;;;;3.50;1.50;;;;;;;17.61;100.00;100377.28;5032511;28;20029;-65
2022/07/01 07:34:45;;;;;;;3.53;1.40;;;;;;;17.66;100.00;100375.19;5032193;28;20127;-65
2022/07/01 07:37:11;;;;;;;2.50;1.50;;;;;;;17.74;100.00;100372.09;5031985;28;20111;-65
2022/07/01 07:39:36;;;;;;;3.50;2.28;;;;;;;17.86;100.00;100369.56;5031894;28;20029;-65
2022/07/01 07:42:03;;;;;;;5.43;2.03;;;;;;;17.97;100.00;100369.81;5032328;28;20617;-65
2022/07/01 07:44:28;;;;;;;3.95;1.70;;;;;;;18.03;100.00;100364.09;5032183;28;20083;-65
2022/07/01 07:46:54;;;;;;;2.80;1.45;;;;;;;18.06;100.00;100371.13;5032344;28;20025;-65
2022/07/01 07:49:20;;;;;;;3.25;1.92;;;;;;;18.13;100.00;100362.63;5032101;28;20029;-65
2022/07/01 07:51:45;;;;;;;4.13;1.73;;;;;;;18.19;100.00;100367.66;5032205;28;20444;-65
2022/07/01 07:54:11;;;;;;;3.05;1.48;;;;;;;18.22;100.00;100375.53;5031877;28;20029;-65
2022/07/01 07:56:36;;;;;;;3.08;1.20;;;;;;;18.28;100.00;100382.41;5032043;28;20083;-65
2022/07/01 07:59:01;;;;;;;2.95;1.38;;;;;;;18.24;100.00;100397.88;5032103;28;20021;-65
2022/07/01 08:01:27;;;;;;;4.60;1.15;;;;;;;18.23;99.33;100384.50;5032100;28;20052;-65
2022/07/01 08:03:52;;;;;;;2.90;1.15;;;;;;;18.31;98.58;100395.69;5028088;28;20080;-65
2022/07/01 08:06:19;;;;;;;2.70;1.25;;;;;;;18.44;99.07;100387.78;5029706;28;20396;-65
2022/07/01 08:08:45;;;;;;;2.88;1.20;;;;;;;18.62;99.08;100379.47;5029547;28;20033;-65
2022/07/01 08:11:11;;;;;;;1.80;1.13;;;;;;;18.80;93.97;100378.38;5029400;28;20021;-65
2022/07/01 08:13:36;;;;;;;3.58;1.27;;;;;;;19.01;93.10;100403.19;5027974;28;20032;-65
2022/07/01 08:16:01;;;;;;;3.20;1.13;;;;;;;19.13;91.04;100405.09;5029476;28;20543;-65
2022/07/01 08:18:27;;;;;;;1.38;0.90;;;;;;;19.21;91.36;100411.78;5028047;28;20029;-64
2022/07/01 08:20:52;;;;;;;4.20;1.50;;;;;;;19.17;88.46;100412.94;5027647;28;20029;-65
2022/07/01 08:23:19;;;;;;;1.65;0.93;;;;;;;19.38;88.26;100416.16;5028983;28;20424;-65
2022/07/01 08:25:47;;;;;;;2.08;1.00;;;;;;;19.83;87.23;100424.06;5029577;28;20029;-64
2022/07/01 08:28:12;;;;;;;3.05;1.00;;;;;;;20.14;87.15;100433.75;5028907;28;20033;-64
2022/07/01 08:30:38;;;;;;;3.83;1.17;;;;;;;20.35;85.27;100427.84;5015575;28;20405;-64
2022/07/01 08:33:04;;;;;;;3.80;1.20;;;;;;;20.46;82.23;100430.69;5010187;28;20076;-64
2022/07/01 08:35:30;;;;;;;3.40;1.08;;;;;;;20.60;80.94;100429.78;5009462;28;20041;-65
2022/07/01 08:37:56;;;;;;;1.33;0.90;;;;;;;20.55;76.94;100435.50;5026941;28;20022;-65
2022/07/01 08:40:26;;;;;;;2.80;0.90;;;;;;;20.46;77.96;100438.81;5028421;28;20029;-65
2022/07/01 08:42:56;;;;;;;2.70;0.95;;;;;;;20.52;80.52;100442.94;5029028;28;20136;-65
2022/07/01 08:45:23;;;;;;;1.58;0.82;;;;;;;20.15;77.05;100444.47;5018780;28;20026;-65
2022/07/01 08:47:52;;;;;;;1.23;0.70;;;;;;;20.17;79.25;100439.84;5015572;28;20102;-65
2022/07/01 08:50:18;;;;;;;2.60;0.80;;;;;;;20.13;78.74;100445.53;5029280;28;20029;-65
2022/07/01 08:52:43;;;;;;;4.03;1.10;;;;;;;20.27;80.03;100432.00;5028315;28;20483;-65
2022/07/01 08:55:09;;;;;;;3.72;1.30;;;;;;;20.51;80.97;100438.53;5028548;28;20056;-65
2022/07/01 08:57:34;;;;;;;2.90;1.08;;;;;;;20.67;79.89;100434.66;5029158;28;20029;-65
2022/07/01 09:00:09;;;;;;;1.50;0.68;;;;;;;20.83;78.10;100432.69;5026707;28;20379;-65
2022/07/01 09:02:56;;;;;;;0.80;0.57;;;;;;;21.00;75.94;100433.38;5023659;28;20031;-65
2022/07/01 09:05:24;;;;;;;1.38;0.70;;;;;;;21.10;71.96;100434.50;5025555;28;20084;-65
2022/07/01 09:07:56;;;;;;;2.38;0.90;;;;;;;21.36;74.39;100433.53;5025745;28;20033;-66
2022/07/01 09:10:21;;;;;;;1.15;0.77;;;;;;;21.41;71.60;100423.25;5025157;28;20025;-65
2022/07/01 09:12:47;;;;;;;2.42;0.60;;;;;;;21.35;71.95;100423.69;5025712;28;20025;-66
2022/07/01 09:15:40;;;;;;;1.20;0.60;;;;;;;21.63;71.79;100420.78;5024553;28;20037;-65
2022/07/01 09:18:20;;;;;;;2.45;0.70;;;;;;;22.18;74.31;100429.34;5023920;28;20400;-64
2022/07/01 09:20:49;;;;;;;1.40;0.60;;;;;;;22.58;69.67;100432.72;5027188;28;20104;-64
2022/07/01 09:23:17;;;;;;;0.80;0.55;;;;;;;22.57;64.90;100436.41;5028708;28;20075;-64
2022/07/01 09:25:51;;;;;;;1.10;0.63;;;;;;;22.82;64.70;100425.41;5029372;28;20424;-64
2022/07/01 09:28:28;;;;;;;3.25;0.80;;;;;;;22.72;66.03;100403.56;5027807;28;20037;-64
2022/07/01 09:30:58;;;;;;;2.60;0.40;;;;;;;22.90;66.46;100432.00;5027158;28;20025;-64
2022/07/01 09:33:28;;;;;;;2.13;0.90;;;;;;;23.01;65.43;100432.06;5028859;28;20037;-64
2022/07/01 09:35:55;;;;;;;1.13;0.70;;;;;;;23.17;69.30;100418.13;5030104;28;20048;-64
2022/07/01 09:38:23;;;;;;;2.20;0.68;;;;;;;23.18;62.96;100420.72;5012139;28;20017;-64
2022/07/01 09:40:57;;;;;;;1.75;0.82;;;;;;;23.71;61.00;100412.94;5030012;28;20029;-64
2022/07/01 09:43:31;;;;;;;1.23;0.60;;;;;;;24.11;59.23;100422.34;5030518;28;20033;-65
2022/07/01 09:46:00;;;;;;;3.22;0.63;;;;;;;24.05;59.11;100428.28;5030021;28;20104;-65
2022/07/01 09:48:30;;;;;;;1.08;0.80;;;;;;;23.56;58.22;100427.75;5030823;28;20104;-65
2022/07/01 09:50:56;;;;;;;2.63;0.60;;;;;;;22.89;62.20;100419.41;5031624;28;20036;-64
2022/07/01 09:53:22;;;;;;;0.98;0.50;;;;;;;22.59;63.34;100421.75;5032007;28;20033;-64
2022/07/01 09:55:48;;;;;;;0.80;0.50;;;;;;;22.63;67.56;100423.25;5032173;28;20145;-64
2022/07/01 09:58:14;;;;;;;1.63;1.05;;;;;;;22.97;65.75;100421.53;5031445;28;20635;-64
2022/07/01 10:00:40;;;;;;;1.20;0.60;;;;;;;23.76;61.73;100418.84;5031765;28;20055;-64
2022/07/01 10:03:06;;;;;;;0.90;0.68;;;;;;;24.47;60.82;100413.88;5031640;28;20070;-64
2022/07/01 10:05:38;;;;;;;1.08;0.55;;;;;;;25.46;60.77;100427.06;5032062;28;20484;-64
2022/07/01 10:08:25;;;;;;;1.27;0.55;;;;;;;25.69;50.52;100422.31;5031649;28;20399;-64
2022/07/01 10:11:20;;;;;;;2.10;0.50;;;;;;;26.25;54.50;100414.53;5010067;28;20033;-64
2022/07/01 10:13:46;;;;;;;2.20;0.50;;;;;;;26.80;49.43;100425.69;5030832;28;20048;-64
2022/07/01 10:16:12;;;;;;;2.10;0.52;;;;;;;26.55;50.52;100422.63;5028990;28;20472;-64
2022/07/01 10:18:37;;;;;;;0.93;0.50;;;;;;;26.91;51.83;100413.78;5031575;28;20100;-64
2022/07/01 10:21:04;;;;;;;0.40;0.40;;;;;;;27.31;50.47;100411.78;5032157;28;20125;-64
2022/07/01 10:23:39;;;;;;;3.35;0.50;;;;;;;27.47;47.40;100417.50;5032635;28;20037;-65
2022/07/01 10:26:07;;;;;;;1.58;0.50;;;;;;;27.48;45.19;100413.75;5033588;28;20401;-65
2022/07/01 10:28:43;;;;;;;0.90;0.50;;;;;;;27.18;46.75;100422.13;5013989;28;20362;-65
2022/07/01 10:31:16;;;;;;;1.20;0.35;;;;;;;27.12;48.68;100419.94;5017604;28;20033;-65
2022/07/01 10:33:54;;;;;;;1.50;0.60;;;;;;;27.60;46.00;100428.09;5016884;28;20029;-65
2022/07/01 10:36:22;;;;;;;0.52;0.30;;;;;;;27.30;45.15;100431.06;5022582;28;20028;-65
2022/07/01 10:39:00;;;;;;;1.30;0.40;;;;;;;26.80;46.82;100430.31;5033539;28;20040;-65
2022/07/01 10:41:30;;;;;;;0.80;0.38;;;;;;;27.12;46.20;100433.59;5027480;28;20077;-65
2022/07/01 10:43:55;;;;;;;2.38;0.55;;;;;;;26.84;48.58;100434.47;5032872;28;20063;-65
2022/07/01 10:46:44;;;;;;;1.05;0.40;;;;;;;26.44;51.10;100430.97;5030748;28;20017;-65
2022/07/01 10:49:18;;;;;;;0.95;0.30;;;;;;;26.08;53.12;100439.75;5031606;28;20379;-65
2022/07/01 10:51:49;;;;;;;1.13;0.60;;;;;;;25.34;53.84;100439.00;5031268;28;20523;-65
2022/07/01 10:54:36;;;;;;;1.30;0.70;;;;;;;24.57;55.58;100437.47;5031345;28;20045;-65
2022/07/01 10:57:17;;;;;;;1.70;0.65;;;;;;;24.06;59.11;100441.75;5031256;28;20040;-65
2022/07/01 10:59:51;;;;;;;1.60;0.77;;;;;;;23.87;60.00;100436.03;5031724;28;20108;-65
2022/07/01 11:02:22;;;;;;;0.68;0.50;;;;;;;23.58;59.33;100433.91;5033186;28;20025;-65
2022/07/01 11:04:49;;;;;;;1.00;0.60;;;;;;;23.31;59.84;100448.69;5033069;28;20112;-65
2022/07/01 11:07:14;;;;;;;1.58;0.52;;;;;;;23.13;57.08;100438.38;5032648;28;20407;-66
2022/07/01 11:09:40;;;;;;;0.90;0.50;;;;;;;22.97;56.79;100438.69;5029617;28;20033;-65
2022/07/01 11:12:07;;;;;;;0.85;0.47;;;;;;;22.87;59.79;100442.19;5032848;28;20032;-65
2022/07/01 11:14:40;;;;;;;2.58;0.73;;;;;;;22.89;59.15;100441.13;5033023;28;20457;-65
2022/07/01 11:17:30;;;;;;;;;;;;;;;22.72;62.21;100444.25;5032902;28;20025;-65
2022/07/01 11:19:58;;;;;;;2.25;0.50;;;;;;;22.77;65.66;100446.59;5032351;28;19917;-66
2022/07/01 11:22:26;;;;;;;1.05;0.70;;;;;;;22.74;66.27;100442.28;5032419;28;20420;-65
2022/07/01 11:24:56;;;;;;;2.13;0.88;;;;;;;22.75;66.29;100452.13;5032485;28;20032;-65
2022/07/01 11:27:22;;;;;;;2.30;0.65;;;;;;;22.71;64.85;100445.22;5031893;28;20427;-65
2022/07/01 11:29:52;;;;;;;0.85;0.57;;;;;;;22.84;66.21;100445.16;5032773;28;20029;-65
2022/07/01 11:32:30;;;;;;;2.67;0.70;;;;;;;22.87;62.74;100451.22;5032087;28;20028;-65